Time;durP1;ratioP1;P1;durP2;ratioP2;P2;SDS_P1;SDS_P2;PMS_P1;PMS_P2;Temp;Humidity;BMP_temperature;BMP_pressure;BME280_temperature;BME280_humidity;BME280_pressure;Samples;Min_cycle;Max_cycle;Signal;HPM_P1;HPM_P2
2022/06/16 00:00:39;;;;;;;8.90;5.80;;;;;;;15.13;60.87;100423.11;106230;1270;138941;-63
2022/06/16 00:03:09;;;;;;;13.10;6.60;;;;;;;15.08;60.95;100429.47;106222;1270;97940;-63
2022/06/16 00:05:41;;;;;;;8.70;6.30;;;;;;;15.01;61.03;100430.67;107682;1270;138500;-62
2022/06/16 00:08:13;;;;;;;12.50;6.10;;;;;;;14.95;61.15;100428.36;107719;1270;111475;-62
2022/06/16 00:11:16;;;;;;;9.90;5.60;;;;;;;14.91;61.31;100426.27;107810;1270;107928;-62
2022/06/16 00:13:32;;;;;;;7.80;5.00;;;;;;;14.88;61.39;100423.05;106294;1270;107445;-62
2022/06/16 00:16:01;;;;;;;6.90;5.40;;;;;;;14.87;61.43;100425.95;107777;1270;96994;-63
2022/06/16 00:18:30;;;;;;;7.80;5.10;;;;;;;14.86;61.55;100429.81;106894;1270;139096;-63
2022/06/16 00:20:59;;;;;;;11.40;5.30;;;;;;;14.85;61.46;100427.04;106348;1270;110517;-63
2022/06/16 00:23:27;;;;;;;11.20;5.80;;;;;;;14.84;61.59;100426.26;106161;1270;139040;-62
2022/06/16 00:25:56;;;;;;;9.10;5.70;;;;;;;14.83;61.81;100428.73;107049;1270;107748;-64
2022/06/16 00:28:25;;;;;;;14.60;5.90;;;;;;;14.83;61.77;100427.15;106362;1271;97815;-63
2022/06/16 00:31:02;;;;;;;8.30;6.00;;;;;;;14.83;61.89;100421.22;106233;1270;138775;-63
2022/06/16 00:33:32;;;;;;;8.80;5.30;;;;;;;14.84;61.87;100420.27;107748;1271;112567;-63
2022/06/16 00:36:00;;;;;;;9.60;5.40;;;;;;;14.83;61.89;100419.98;107738;1270;138588;-63
2022/06/16 00:38:29;;;;;;;8.90;5.10;;;;;;;14.81;61.88;100420.62;106476;1271;105695;-63
2022/06/16 00:40:57;;;;;;;11.00;5.60;;;;;;;14.81;61.93;100420.42;106109;1270;138871;-63
2022/06/16 00:43:27;;;;;;;13.30;6.10;;;;;;;14.82;61.98;100418.45;106098;1270;98016;-63
2022/06/16 00:46:00;;;;;;;16.40;6.60;;;;;;;14.83;62.00;100414.58;106285;1271;111632;-63
2022/06/16 00:48:35;;;;;;;14.80;5.60;;;;;;;14.82;62.05;100414.08;106798;1272;138615;-63
2022/06/16 00:51:09;;;;;;;7.00;4.70;;;;;;;14.80;62.08;100415.40;106328;1271;108151;-62
2022/06/16 00:53:40;;;;;;;10.20;5.40;;;;;;;14.75;62.08;100410.55;107712;1270;138694;-63
2022/06/16 00:56:13;;;;;;;16.40;6.30;;;;;;;14.72;62.22;100411.02;107785;1271;96012;-63
2022/06/16 00:58:45;;;;;;;14.40;6.70;;;;;;;14.69;62.30;100407.66;107872;1269;111892;-63
2022/06/16 01:01:15;;;;;;;19.20;7.00;;;;;;;14.65;62.48;100406.48;107597;1271;139405;-63
2022/06/16 01:06:31;;;;;;;10.90;5.90;;;;;;;14.56;62.72;100407.08;106599;1270;138772;-63
2022/06/16 01:09:02;;;;;;;15.20;6.30;;;;;;;14.53;62.79;100404.05;106398;1270;97983;-63
2022/06/16 01:14:45;;;;;;;9.50;6.00;;;;;;;14.45;63.13;100403.52;107476;1271;108201;-62
2022/06/16 01:17:24;;;;;;;11.80;7.60;;;;;;;14.39;63.33;100399.44;106285;1271;139392;-63
2022/06/16 01:20:05;;;;;;;12.50;7.20;;;;;;;14.32;63.39;100392.88;106510;1271;97813;-62
2022/06/16 01:22:50;;;;;;;12.20;6.90;;;;;;;14.26;63.59;100391.96;106328;1271;97819;-62
2022/06/16 01:25:33;;;;;;;13.50;6.20;;;;;;;14.20;63.78;100390.31;107838;1270;112067;-62
2022/06/16 01:28:23;;;;;;;14.30;6.30;;;;;;;14.13;63.71;100390.08;107907;1268;108088;-63
2022/06/16 01:30:59;;;;;;;10.10;6.50;;;;;;;14.06;63.99;100389.36;107710;1270;139581;-63
2022/06/16 01:33:36;;;;;;;7.20;5.90;;;;;;;13.99;64.11;100391.61;107775;1270;96403;-63
2022/06/16 01:36:13;;;;;;;13.00;6.60;;;;;;;13.92;64.37;100388.75;107199;1271;138864;-63
2022/06/16 01:38:53;;;;;;;10.80;6.50;;;;;;;13.87;64.40;100390.18;106408;1271;111335;-63
2022/06/16 01:41:29;;;;;;;10.50;6.40;;;;;;;13.82;64.60;100384.30;106117;1271;139616;-62
2022/06/16 01:44:10;;;;;;;12.30;6.60;;;;;;;13.77;64.81;100387.48;106263;1271;108934;-63
2022/06/16 01:46:42;;;;;;;12.00;6.70;;;;;;;13.73;64.74;100384.52;107745;1271;96109;-63
2022/06/16 01:49:19;;;;;;;11.80;6.70;;;;;;;13.70;65.01;100382.90;106479;1271;138690;-64
2022/06/16 01:51:53;;;;;;;13.50;6.70;;;;;;;13.67;65.16;100382.69;106389;1271;112381;-62
2022/06/16 01:54:27;;;;;;;35.10;11.10;;;;;;;13.64;65.07;100380.68;106145;1271;138782;-63
2022/06/16 01:57:00;;;;;;;10.00;6.30;;;;;;;13.63;65.24;100383.55;106491;1271;108822;-63
2022/06/16 01:59:34;;;;;;;13.20;6.50;;;;;;;13.60;65.31;100382.94;106324;1271;140237;-63
2022/06/16 02:02:07;;;;;;;25.90;9.60;;;;;;;13.59;65.47;100382.48;106175;1271;97837;-63
2022/06/16 02:04:43;;;;;;;30.60;11.00;;;;;;;13.58;65.50;100381.84;106194;1270;112076;-63
2022/06/16 02:07:17;;;;;;;11.50;6.80;;;;;;;13.56;65.44;100382.07;107582;1271;139642;-63
2022/06/16 02:09:49;;;;;;;12.40;6.50;;;;;;;13.55;65.66;100381.94;107837;1270;109070;-64
2022/06/16 02:15:16;;;;;;;12.90;6.30;;;;;;;13.53;65.70;100382.92;106223;1270;97909;-63
2022/06/16 02:17:56;;;;;;;8.90;6.30;;;;;;;13.53;65.84;100382.56;107446;1271;139310;-63
2022/06/16 02:20:30;;;;;;;11.70;6.00;;;;;;;13.55;65.73;100382.14;106291;1271;109059;-63
2022/06/16 02:22:58;;;;;;;9.70;5.80;;;;;;;13.55;65.69;100385.26;105995;1272;138910;-63
2022/06/16 02:25:27;;;;;;;10.50;6.00;;;;;;;13.56;65.82;100388.56;107740;1270;97106;-63
2022/06/16 02:27:57;;;;;;;10.50;5.90;;;;;;;13.55;66.02;100391.20;107729;1271;95839;-63
2022/06/16 02:30:31;;;;;;;10.90;6.10;;;;;;;13.55;65.93;100389.46;107643;1271;139467;-62
2022/06/16 02:33:06;;;;;;;10.80;6.10;;;;;;;13.55;66.03;100387.02;107729;1269;107846;-62
2022/06/16 02:35:42;;;;;;;8.70;5.90;;;;;;;13.56;65.85;100386.44;106263;1270;139335;-63
2022/06/16 02:38:27;;;;;;;11.60;5.70;;;;;;;13.58;65.87;100391.60;107148;1270;98048;-62
2022/06/16 02:41:09;;;;;;;9.60;5.80;;;;;;;13.60;65.87;100395.17;107697;1270;139735;-63
2022/06/16 02:44:00;;;;;;;7.90;5.60;;;;;;;13.59;65.91;100399.04;107804;1270;111974;-63
2022/06/16 02:46:44;;;;;;;8.70;5.40;;;;;;;13.60;65.95;100398.86;107777;1270;107752;-62
2022/06/16 02:49:25;;;;;;;11.60;5.90;;;;;;;13.59;65.81;100398.37;107686;1270;138579;-63
2022/06/16 02:52:09;;;;;;;11.30;5.30;;;;;;;13.60;65.91;100396.08;107770;1271;96165;-63
2022/06/16 02:54:46;;;;;;;8.80;5.30;;;;;;;13.62;65.84;100398.27;107539;1271;139359;-63
2022/06/16 02:57:21;;;;;;;7.00;5.60;;;;;;;13.63;65.89;100395.39;107729;1270;111451;-62
2022/06/16 02:59:55;;;;;;;9.00;5.40;;;;;;;13.64;65.95;100398.86;106657;1271;138733;-62
2022/06/16 03:02:26;;;;;;;9.60;5.60;;;;;;;13.64;65.88;100399.39;106320;1271;108769;-63
2022/06/16 03:04:57;;;;;;;8.50;5.40;;;;;;;13.61;65.90;100398.10;106635;1271;138771;-62
2022/06/16 03:07:28;;;;;;;13.10;6.40;;;;;;;13.60;66.03;100401.45;106316;1271;97911;-64
2022/06/16 03:10:08;;;;;;;11.30;6.00;;;;;;;13.59;66.16;100401.36;106139;1271;112045;-63
2022/06/16 03:12:36;;;;;;;8.50;5.80;;;;;;;13.57;66.08;100402.99;106841;1271;139861;-63
2022/06/16 03:15:10;;;;;;;10.50;5.70;;;;;;;13.57;66.19;100402.81;106319;1270;110707;-63
2022/06/16 03:17:39;;;;;;;9.30;5.70;;;;;;;13.58;66.41;100405.05;106697;1271;139630;-63
2022/06/16 03:20:11;;;;;;;11.00;6.20;;;;;;;13.61;66.44;100407.35;106205;1271;97798;-63
2022/06/16 03:22:39;;;;;;;8.50;5.60;;;;;;;13.66;66.57;100404.39;107322;1268;112476;-63
2022/06/16 03:25:11;;;;;;;9.30;5.20;;;;;;;13.70;66.42;100404.55;106230;1271;139413;-62
2022/06/16 03:27:39;;;;;;;7.80;5.10;;;;;;;13.74;66.31;100405.95;106651;1270;108775;-65
2022/06/16 03:30:10;;;;;;;7.50;4.90;;;;;;;13.78;66.38;100405.60;106187;1271;138574;-63
2022/06/16 03:32:39;;;;;;;8.30;5.20;;;;;;;13.83;66.24;100403.83;106612;1271;97847;-64
2022/06/16 03:35:08;;;;;;;10.80;5.70;;;;;;;13.86;66.07;100401.08;106128;1271;138545;-64
2022/06/16 03:37:37;;;;;;;9.60;5.40;;;;;;;13.91;66.00;100397.72;106859;1269;108859;-63
2022/06/16 03:40:11;;;;;;;7.50;5.00;;;;;;;13.97;65.92;100396.94;106171;1271;108850;-63
2022/06/16 03:42:40;;;;;;;10.10;4.80;;;;;;;14.00;65.72;100394.70;107631;1271;138677;-64
2022/06/16 03:45:11;;;;;;;7.20;4.90;;;;;;;14.03;65.52;100389.16;107778;1271;96203;-63
2022/06/16 03:47:39;;;;;;;9.90;4.80;;;;;;;14.09;65.43;100384.70;107647;1271;142645;-64
2022/06/16 03:50:12;;;;;;;11.20;5.50;;;;;;;14.16;65.28;100382.27;107729;1271;109270;-63
2022/06/16 03:52:40;;;;;;;8.40;4.70;;;;;;;14.20;65.07;100378.21;107805;1270;109041;-63
2022/06/16 03:55:10;;;;;;;8.00;4.60;;;;;;;14.28;64.95;100375.80;107143;1271;138951;-63
2022/06/16 03:57:38;;;;;;;10.70;4.90;;;;;;;14.36;64.67;100375.40;107833;1270;96345;-63
2022/06/16 04:00:12;;;;;;;10.70;5.00;;;;;;;14.43;64.65;100377.91;107590;1271;140513;-63
2022/06/16 04:02:47;;;;;;;13.10;4.70;;;;;;;14.50;64.44;100378.82;106319;1270;109168;-63
2022/06/16 04:05:24;;;;;;;13.70;5.90;;;;;;;14.56;64.26;100379.09;106213;1271;138933;-63
2022/06/16 04:08:03;;;;;;;8.30;4.90;;;;;;;14.62;64.19;100383.37;106353;1271;97849;-64
2022/06/16 04:10:33;;;;;;;9.30;5.10;;;;;;;14.65;63.98;100386.00;106388;1270;98052;-61
2022/06/16 04:13:05;;;;;;;9.30;5.20;;;;;;;14.68;64.02;100383.38;106908;1270;139132;-63
2022/06/16 04:15:34;;;;;;;6.10;4.40;;;;;;;14.73;63.77;100380.75;106199;1272;109403;-63
2022/06/16 04:18:05;;;;;;;9.90;4.60;;;;;;;14.75;63.61;100376.96;106203;1270;138576;-63
2022/06/16 04:20:37;;;;;;;6.90;4.60;;;;;;;14.78;63.54;100371.40;106310;1271;97818;-63
2022/06/16 04:23:28;;;;;;;7.60;4.40;;;;;;;14.81;63.38;100374.03;106187;1270;139539;-62
2022/06/16 04:25:58;;;;;;;8.10;4.60;;;;;;;14.85;63.30;100369.11;106214;1271;111791;-63
2022/06/16 04:28:28;;;;;;;6.70;4.20;;;;;;;14.89;63.22;100367.00;107711;1271;109084;-64
2022/06/16 04:30:59;;;;;;;7.40;4.50;;;;;;;14.93;63.04;100367.00;106785;1271;138692;-63
2022/06/16 04:33:32;;;;;;;10.70;4.20;;;;;;;15.00;62.99;100365.41;106177;1273;97812;-64
2022/06/16 04:36:03;;;;;;;8.80;4.30;;;;;;;15.06;62.94;100367.73;106267;1271;138651;-62
2022/06/16 04:38:37;;;;;;;7.10;4.80;;;;;;;15.12;62.73;100365.56;106433;1270;111222;-63
2022/06/16 04:41:05;;;;;;;6.50;4.00;;;;;;;15.17;62.58;100363.36;107668;1271;139625;-62
2022/06/16 04:43:35;;;;;;;7.80;4.20;;;;;;;15.24;62.49;100361.48;106324;1271;107254;-63
2022/06/16 04:46:05;;;;;;;6.30;4.10;;;;;;;15.34;62.41;100356.39;106371;1271;97822;-63
2022/06/16 04:48:39;;;;;;;8.40;4.30;;;;;;;15.47;62.29;100360.32;106278;1271;138444;-62
2022/06/16 04:51:17;;;;;;;7.80;3.80;;;;;;;15.58;62.18;100360.05;106355;1271;112534;-63
2022/06/16 04:53:49;;;;;;;8.30;3.90;;;;;;;15.69;61.77;100364.27;106229;1271;138549;-63
2022/06/16 04:56:22;;;;;;;7.00;4.20;;;;;;;15.81;61.53;100362.23;106152;1271;109002;-63
2022/06/16 04:59:09;;;;;;;7.00;4.00;;;;;;;15.95;61.22;100358.89;107701;1269;138726;-64
2022/06/16 05:01:55;;;;;;;7.70;4.10;;;;;;;16.09;60.91;100357.64;107691;1272;96303;-64
2022/06/16 05:04:53;;;;;;;8.10;3.60;;;;;;;16.22;60.54;100360.42;107614;1270;138514;-64
2022/06/16 05:07:51;;;;;;;7.30;3.80;;;;;;;16.39;60.05;100360.75;107690;1270;109631;-64
2022/06/16 05:10:37;;;;;;;;;;;;;;;16.56;59.61;100358.92;107880;1270;107868;-63
2022/06/16 05:13:24;;;;;;;5.90;3.40;;;;;;;16.74;59.45;100354.97;107779;1270;96223;-62
2022/06/16 05:16:08;;;;;;;7.00;3.20;;;;;;;16.99;59.21;100353.77;107842;1270;96114;-62
2022/06/16 05:18:55;;;;;;;6.20;3.50;;;;;;;17.22;58.66;100349.23;107736;1270;138039;-64
2022/06/16 05:21:42;;;;;;;;;;;;;;;17.44;58.08;100345.99;107925;1270;109197;-64
2022/06/16 05:24:38;;;;;;;5.00;2.90;;;;;;;17.76;57.62;100352.40;107247;1270;125346;-64
2022/06/16 05:27:34;;;;;;;4.30;3.10;;;;;;;18.09;56.49;100345.46;107849;1270;96045;-62
2022/06/16 05:30:41;;;;;;;6.20;3.50;;;;;;;18.46;56.08;100345.09;105910;1278;137657;-63
2022/06/16 05:33:28;;;;;;;6.00;3.30;;;;;;;18.77;55.45;100341.22;107416;1276;111310;-63
2022/06/16 05:36:17;;;;;;;6.90;3.30;;;;;;;19.07;54.46;100341.88;107660;1269;138396;-64
2022/06/16 05:38:54;;;;;;;4.70;3.00;;;;;;;19.28;53.51;100340.13;107816;1270;108930;-63
2022/06/16 05:41:33;;;;;;;4.50;2.60;;;;;;;19.46;53.16;100337.64;107240;1271;138560;-63
2022/06/16 05:44:19;;;;;;;9.20;2.90;;;;;;;19.64;52.68;100337.86;106677;1271;97804;-64
2022/06/16 05:47:11;;;;;;;4.10;2.80;;;;;;;19.86;52.41;100339.86;106283;1271;137892;-63
2022/06/16 05:49:44;;;;;;;8.80;3.10;;;;;;;20.07;51.94;100339.34;107924;1269;108814;-63
2022/06/16 05:52:17;;;;;;;5.10;2.80;;;;;;;20.24;51.52;100336.90;107804;1271;108973;-64
2022/06/16 05:54:58;;;;;;;4.60;2.40;;;;;;;20.48;51.04;100337.83;107662;1271;138373;-63
2022/06/16 05:57:28;;;;;;;8.90;2.50;;;;;;;20.77;50.58;100335.59;107843;1271;96172;-63
2022/06/16 05:59:56;;;;;;;5.60;2.30;;;;;;;21.18;49.32;100334.48;107633;1269;137572;-64
2022/06/16 06:02:25;;;;;;;3.00;2.40;;;;;;;21.92;48.62;100336.23;107771;1270;108963;-63
2022/06/16 06:04:58;;;;;;;5.50;2.40;;;;;;;23.15;47.22;100327.16;107569;1271;138229;-65
2022/06/16 06:16:25;;;;;;;10.00;2.20;;;;;;;24.14;44.24;100320.52;107762;1271;96446;-64
2022/06/16 06:18:42;;;;;;;2.60;1.50;;;;;;;25.70;38.40;100310.08;107624;1270;138321;-67
2022/06/16 06:21:11;;;;;;;3.40;1.70;;;;;;;25.53;39.10;100311.27;107801;1270;96226;-67
2022/06/16 06:23:40;;;;;;;6.20;2.00;;;;;;;25.44;39.72;100315.17;107698;1270;137851;-67
2022/06/16 06:26:11;;;;;;;5.90;1.90;;;;;;;25.27;39.91;100314.48;107817;1270;112434;-67
2022/06/16 06:28:40;;;;;;;4.60;2.00;;;;;;;25.14;39.81;100321.55;107853;1270;107781;-67
2022/06/16 06:31:08;;;;;;;3.60;1.70;;;;;;;25.66;38.91;100316.65;107718;1270;137661;-69
2022/06/16 06:33:37;;;;;;;2.80;1.60;;;;;;;26.84;39.02;100310.75;107829;1270;95962;-70
2022/06/16 06:36:07;;;;;;;2.50;1.70;;;;;;;27.67;36.00;100307.77;107735;1270;137933;-70
2022/06/16 06:38:35;;;;;;;3.20;1.60;;;;;;;27.68;35.61;100304.04;107869;1270;112566;-67
2022/06/16 06:41:07;;;;;;;2.80;1.50;;;;;;;27.82;34.84;100304.29;107776;1269;138851;-67
2022/06/16 06:43:35;;;;;;;4.40;1.80;;;;;;;27.85;34.64;100296.09;107906;1270;108979;-70
2022/06/16 06:46:04;;;;;;;3.30;1.70;;;;;;;27.72;34.13;100294.59;107130;1268;97831;-67
2022/06/16 06:48:33;;;;;;;3.10;1.50;;;;;;;27.57;33.55;100293.82;106590;1270;137971;-67
2022/06/16 06:51:01;;;;;;;3.60;1.50;;;;;;;27.99;34.55;100290.33;106334;1271;112005;-70
2022/06/16 06:53:30;;;;;;;3.70;1.50;;;;;;;28.37;33.99;100285.95;106207;1271;138033;-67
2022/06/16 06:55:59;;;;;;;3.80;1.80;;;;;;;28.56;32.92;100288.73;106285;1270;110563;-66
2022/06/16 06:58:31;;;;;;;2.60;1.70;;;;;;;28.63;32.23;100287.84;106408;1271;97819;-66
2022/06/16 07:01:01;;;;;;;5.70;1.70;;;;;;;28.90;32.28;100282.39;106323;1271;137868;-67
2022/06/16 07:03:30;;;;;;;4.80;1.50;;;;;;;29.29;31.42;100278.37;107034;1271;111442;-66
2022/06/16 07:06:01;;;;;;;5.30;1.70;;;;;;;29.30;31.30;100277.83;107798;1271;138443;-68
2022/06/16 07:08:31;;;;;;;4.60;1.50;;;;;;;29.83;31.18;100278.80;107195;1269;107687;-67
2022/06/16 07:10:59;;;;;;;2.70;1.70;;;;;;;30.53;31.08;100272.18;106111;1271;138012;-67
2022/06/16 07:13:28;;;;;;;3.10;1.40;;;;;;;31.15;30.31;100267.11;106182;1270;97917;-65
2022/06/16 07:15:57;;;;;;;3.20;1.50;;;;;;;31.33;28.87;100269.02;106432;1271;111443;-67
2022/06/16 07:18:26;;;;;;;3.50;1.70;;;;;;;31.04;29.11;100264.40;106327;1270;139040;-67
2022/06/16 07:20:55;;;;;;;3.20;1.30;;;;;;;30.96;29.31;100263.77;107784;1270;108378;-69
2022/06/16 07:23:23;;;;;;;3.10;1.30;;;;;;;31.05;29.37;100266.65;106608;1271;138105;-66
2022/06/16 07:25:52;;;;;;;4.00;1.40;;;;;;;30.91;28.03;100268.52;106458;1271;97695;-65
2022/06/16 07:28:21;;;;;;;2.60;1.40;;;;;;;30.47;28.02;100274.48;106429;1271;112088;-66
2022/06/16 07:30:49;;;;;;;5.00;1.70;;;;;;;30.24;28.87;100271.61;106335;1271;137847;-66
2022/06/16 07:33:18;;;;;;;2.30;1.50;;;;;;;30.05;28.84;100272.34;106175;1271;108583;-67
2022/06/16 07:35:47;;;;;;;3.50;1.60;;;;;;;29.73;28.61;100276.88;106091;1271;137905;-67
2022/06/16 07:38:16;;;;;;;8.50;1.60;;;;;;;29.23;28.70;100266.27;106447;1271;97895;-67
2022/06/16 07:40:44;;;;;;;3.10;1.80;;;;;;;28.73;29.04;100262.82;106566;1271;112692;-66
2022/06/16 07:43:13;;;;;;;6.20;1.60;;;;;;;28.41;29.95;100255.14;107747;1271;138135;-66
2022/06/16 07:45:41;;;;;;;2.30;1.20;;;;;;;28.32;30.03;100261.26;107240;1271;107613;-66
2022/06/16 07:48:10;;;;;;;3.40;1.40;;;;;;;28.23;30.08;100257.02;106241;1270;138022;-66
2022/06/16 07:50:39;;;;;;;3.50;1.60;;;;;;;28.09;30.40;100253.70;106449;1271;98099;-66
2022/06/16 07:53:08;;;;;;;2.90;1.60;;;;;;;28.27;30.61;100251.98;106320;1271;139350;-66
2022/06/16 07:55:37;;;;;;;3.60;1.70;;;;;;;28.70;30.33;100247.35;106435;1271;108602;-66
2022/06/16 07:58:05;;;;;;;2.50;1.40;;;;;;;29.29;30.28;100252.50;106323;1271;109202;-67
2022/06/16 08:00:35;;;;;;;3.30;1.40;;;;;;;29.96;29.42;100251.45;106117;1271;137903;-62
2022/06/16 08:03:04;;;;;;;3.20;1.40;;;;;;;30.51;28.26;100250.86;106636;1271;97800;-62
2022/06/16 08:05:33;;;;;;;3.10;1.20;;;;;;;31.02;27.32;100248.02;106197;1270;139205;-62
2022/06/16 08:08:02;;;;;;;2.00;1.40;;;;;;;31.37;26.61;100248.70;106379;1271;107866;-61
2022/06/16 08:10:34;;;;;;;4.70;1.30;;;;;;;31.52;26.28;100248.32;106413;1271;108815;-63
2022/06/16 08:13:03;;;;;;;3.30;1.50;;;;;;;31.63;25.92;100252.38;107704;1270;137853;-63
2022/06/16 08:15:32;;;;;;;6.00;1.50;;;;;;;31.59;25.28;100260.38;106681;1271;97832;-63
2022/06/16 08:18:01;;;;;;;2.60;1.20;;;;;;;31.47;25.42;100257.51;107766;1271;138726;-63
2022/06/16 08:20:30;;;;;;;2.70;1.20;;;;;;;31.49;25.18;100260.31;107847;1270;107657;-63
2022/06/16 08:23:01;;;;;;;3.20;1.40;;;;;;;31.60;25.00;100259.71;107692;1270;138891;-64
2022/06/16 08:25:30;;;;;;;3.10;1.80;;;;;;;31.82;25.44;100249.98;107471;1271;393741;-63
2022/06/16 08:28:02;;;;;;;5.30;1.50;;;;;;;31.99;25.69;100245.27;106444;1271;97756;-64
2022/06/16 08:30:33;;;;;;;3.30;1.30;;;;;;;31.42;24.99;100252.30;106101;1271;137911;-63
2022/06/16 08:33:02;;;;;;;4.80;1.50;;;;;;;30.19;25.37;100260.87;106341;1270;109022;-63
2022/06/16 08:35:31;;;;;;;4.10;1.50;;;;;;;28.89;25.93;100252.59;106349;1270;138142;-64
2022/06/16 08:38:00;;;;;;;3.20;1.30;;;;;;;27.93;27.15;100260.04;106391;1271;97844;-64
2022/06/16 08:40:32;;;;;;;4.10;1.20;;;;;;;27.11;28.08;100257.20;107842;1270;96280;-64
2022/06/16 08:43:06;;;;;;;5.10;1.20;;;;;;;26.38;29.34;100259.50;107111;1271;137716;-64
2022/06/16 08:45:38;;;;;;;3.50;1.40;;;;;;;25.97;30.28;100262.10;106384;1271;107545;-64
2022/06/16 08:48:23;;;;;;;3.60;1.90;;;;;;;25.80;30.86;100264.11;107641;1270;138206;-64
2022/06/16 08:50:57;;;;;;;4.80;1.70;;;;;;;25.96;30.59;100268.40;107816;1271;96028;-64
2022/06/16 08:53:54;;;;;;;4.50;1.80;;;;;;;26.32;30.71;100262.98;107664;1271;138059;-64
2022/06/16 08:56:34;;;;;;;4.60;1.80;;;;;;;26.77;30.71;100258.01;107835;1271;112753;-64
2022/06/16 08:59:10;;;;;;;3.80;1.30;;;;;;;27.00;30.65;100247.05;107778;1270;140846;-63
2022/06/16 09:01:46;;;;;;;2.80;1.60;;;;;;;27.67;30.28;100251.15;106426;1271;109023;-64
2022/06/16 09:04:23;;;;;;;2.30;1.20;;;;;;;28.44;29.99;100244.23;106440;1271;97836;-64
2022/06/16 09:06:55;;;;;;;;;;;;;;;29.05;29.00;100241.82;106848;1269;138655;-63
2022/06/16 09:12:40;;;;;;;2.20;1.10;;;;;;;29.56;27.72;100232.29;107370;1269;138595;-63
2022/06/16 09:15:21;;;;;;;2.20;1.70;;;;;;;30.11;26.78;100230.23;106360;1271;108998;-62
2022/06/16 09:18:13;;;;;;;2.10;1.20;;;;;;;30.43;26.27;100230.05;107271;1270;138177;-62
2022/06/16 09:20:47;;;;;;;3.00;1.10;;;;;;;30.69;26.14;100227.08;106665;1271;97794;-64
2022/06/16 09:23:37;;;;;;;3.00;1.60;;;;;;;31.10;26.00;100217.55;106321;1271;137836;-64
2022/06/16 09:26:18;;;;;;;2.80;1.20;;;;;;;31.78;26.29;100212.98;106415;1271;108896;-63
2022/06/16 09:28:52;;;;;;;6.40;1.40;;;;;;;32.55;25.87;100207.02;106361;1271;108139;-62
2022/06/16 09:31:24;;;;;;;4.10;1.40;;;;;;;33.09;25.41;100209.85;107866;1270;96152;-63
2022/06/16 09:34:01;;;;;;;3.30;2.50;;;;;;;33.37;23.85;100215.36;107854;1271;95809;-64
2022/06/16 09:36:34;;;;;;;1.60;1.00;;;;;;;32.85;23.25;100208.27;107675;1271;138792;-63
2022/06/16 09:39:10;;;;;;;2.70;1.20;;;;;;;32.21;23.36;100210.04;107852;1271;107673;-65
2022/06/16 09:45:01;;;;;;;3.80;1.30;;;;;;;30.82;23.76;100213.71;107868;1270;96141;-66
2022/06/16 09:47:35;;;;;;;2.90;1.30;;;;;;;29.89;24.48;100216.60;107550;1270;141757;-66
2022/06/16 09:50:10;;;;;;;2.10;1.30;;;;;;;29.12;25.45;100225.43;106403;1271;112010;-67
2022/06/16 09:52:47;;;;;;;5.30;1.20;;;;;;;28.44;26.11;100224.60;106413;1271;107153;-66
2022/06/16 09:55:19;;;;;;;1.90;1.10;;;;;;;27.91;26.60;100226.65;107648;1271;138825;-66
2022/06/16 09:57:53;;;;;;;3.00;1.00;;;;;;;27.61;27.31;100230.31;107850;1271;96151;-65
2022/06/16 10:00:25;;;;;;;2.70;1.00;;;;;;;27.17;27.57;100226.11;107717;1271;138899;-63
2022/06/16 10:02:56;;;;;;;3.00;1.00;;;;;;;26.88;27.85;100222.08;107724;1271;111588;-64
2022/06/16 10:05:35;;;;;;;1.90;1.10;;;;;;;26.75;28.43;100220.86;107005;1271;138211;-65
2022/06/16 10:08:14;;;;;;;2.50;1.50;;;;;;;26.78;28.19;100217.42;106325;1271;108724;-65
2022/06/16 10:10:51;;;;;;;1.70;1.10;;;;;;;26.86;28.15;100220.20;106297;1271;97824;-64
2022/06/16 10:13:27;;;;;;;2.60;1.30;;;;;;;26.90;28.27;100216.89;106290;1271;97918;-65
2022/06/16 10:16:07;;;;;;;4.10;1.30;;;;;;;26.90;28.28;100213.32;106272;1271;110892;-65
2022/06/16 10:18:36;;;;;;;2.20;1.10;;;;;;;26.88;28.51;100214.61;106237;1271;138502;-65
2022/06/16 10:21:07;;;;;;;2.20;1.00;;;;;;;26.99;28.86;100213.48;106258;1271;108855;-65
2022/06/16 10:23:42;;;;;;;4.10;1.10;;;;;;;27.22;28.70;100210.25;106107;1271;138259;-65
2022/06/16 10:26:11;;;;;;;3.90;1.30;;;;;;;27.61;28.83;100206.06;106448;1271;97838;-65
2022/06/16 10:29:03;;;;;;;2.40;1.00;;;;;;;28.20;28.68;100207.33;107498;1270;111157;-68
2022/06/16 10:31:40;;;;;;;2.60;1.20;;;;;;;28.77;27.95;100204.41;106386;1271;108083;-66
2022/06/16 10:34:20;;;;;;;3.10;1.40;;;;;;;28.94;27.38;100202.70;107444;1271;108454;-65
2022/06/16 10:36:58;;;;;;;3.90;1.30;;;;;;;29.11;27.41;100204.92;106128;1271;138236;-67
2022/06/16 10:39:36;;;;;;;3.80;1.20;;;;;;;29.26;26.97;100203.77;106249;1271;97893;-66
2022/06/16 10:42:15;;;;;;;4.90;3.00;;;;;;;29.32;26.78;100206.70;106145;1271;137777;-67
2022/06/16 10:44:51;;;;;;;4.10;1.20;;;;;;;29.41;26.81;100207.09;106241;1271;108009;-63
2022/06/16 10:47:25;;;;;;;2.80;1.30;;;;;;;29.48;26.08;100208.73;107709;1270;138419;-64
2022/06/16 10:49:53;;;;;;;1.90;1.10;;;;;;;29.33;25.78;100208.41;107810;1270;95986;-64
2022/06/16 10:52:30;;;;;;;2.50;1.40;;;;;;;28.96;25.72;100207.35;107845;1271;97947;-64
2022/06/16 10:55:05;;;;;;;11.90;7.60;;;;;;;28.62;26.43;100203.16;107487;1270;138353;-64
2022/06/16 10:57:42;;;;;;;4.20;2.40;;;;;;;28.55;26.89;100195.81;106335;1269;107997;-65
2022/06/16 11:00:14;;;;;;;;;;;;;;;28.63;26.60;100197.33;106246;1268;138174;-64
2022/06/16 11:02:59;;;;;;;2.00;1.40;;;;;;;28.75;26.81;100191.99;106573;1271;98577;-64
2022/06/16 11:05:30;;;;;;;2.90;1.60;;;;;;;28.76;26.61;100194.63;106203;1271;138606;-65
2022/06/16 11:08:09;;;;;;;3.60;1.40;;;;;;;28.84;26.67;100193.69;106220;1271;111533;-64
2022/06/16 11:11:00;;;;;;;3.30;1.90;;;;;;;28.86;26.63;100190.29;106130;1271;138382;-64
2022/06/16 11:13:32;;;;;;;3.80;1.30;;;;;;;29.02;26.34;100190.90;106200;1271;108202;-65
2022/06/16 11:16:06;;;;;;;9.50;6.00;;;;;;;29.05;26.32;100189.85;107670;1270;97200;-65
2022/06/16 11:18:37;;;;;;;10.00;6.80;;;;;;;29.05;26.39;100185.52;107434;1270;138489;-65
2022/06/16 11:21:16;;;;;;;3.60;2.40;;;;;;;29.12;26.53;100184.95;107850;1270;112637;-65
2022/06/16 11:23:51;;;;;;;15.90;10.60;;;;;;;29.09;26.36;100184.72;107758;1270;138444;-66
2022/06/16 11:26:24;;;;;;;2.70;1.40;;;;;;;28.99;26.45;100182.61;107772;1270;108731;-64
2022/06/16 11:28:55;;;;;;;5.70;1.40;;;;;;;28.84;25.72;100187.14;107677;1268;138573;-66
2022/06/16 11:31:40;;;;;;;5.50;1.40;;;;;;;28.58;25.80;100180.34;107846;1269;97605;-67
2022/06/16 11:34:19;;;;;;;3.00;1.80;;;;;;;28.22;26.26;100180.65;107747;1268;112689;-68
2022/06/16 11:37:19;;;;;;;16.10;8.40;;;;;;;27.78;26.58;100183.73;106479;1268;138563;-65
2022/06/16 11:40:04;;;;;;;15.80;10.20;;;;;;;27.62;27.44;100175.21;106350;1271;108885;-66
2022/06/16 11:42:45;;;;;;;27.50;16.90;;;;;;;27.69;27.83;100174.19;106911;1269;138425;-67
2022/06/16 11:45:23;;;;;;;5.30;2.40;;;;;;;27.78;27.76;100177.48;106385;1270;97797;-67
2022/06/16 11:47:59;;;;;;;5.40;1.80;;;;;;;27.84;27.40;100170.78;106128;1271;137743;-68
2022/06/16 11:50:36;;;;;;;6.10;3.10;;;;;;;27.76;27.41;100168.27;107846;1268;109275;-68
2022/06/16 11:53:27;;;;;;;13.90;9.20;;;;;;;27.77;27.52;100165.83;107691;1268;139181;-68
2022/06/16 11:56:01;;;;;;;22.10;13.60;;;;;;;27.99;28.16;100158.94;107825;1268;96284;-67
2022/06/16 11:58:47;;;;;;;3.80;1.50;;;;;;;28.24;27.60;100161.59;107872;1271;96947;-67
2022/06/16 12:01:22;;;;;;;2.70;1.70;;;;;;;28.41;26.88;100154.73;106210;1271;138455;-66
2022/06/16 12:04:20;;;;;;;1.60;1.20;;;;;;;28.51;26.86;100153.52;107766;1270;108807;-68
2022/06/16 12:07:07;;;;;;;9.80;3.70;;;;;;;28.62;27.02;100151.64;106051;1271;140138;-69